Aviation Digital Data Service (ADDS)

Output produced by METARs form (2230 UTC 30 August 2016)
found at http://aviationweather.gov/adds/metars/
 
KGNV 302113Z 3021/3118 07012KT P6SM VCSH SCT025 BKN040 
     TEMPO 3022/3102 VRB12G22KT 3SM SHRA BR SCT015 BKN025 
     FM310200 07006KT P6SM VCSH SCT025 BKN050 OVC060 
     FM310500 VRB04KT P6SM VCSH SCT012 OVC025 
     FM311400 20006KT P6SM VCSH BKN030